N410HA -KGWS
Flight info
| Callsign | N410HA |
|---|---|
| Flight time | N/A |
| Altitude | VFR |
| Route | |
| Aircraft | EC30/L-DOV/C |
Departure
| Time | N/A |
|---|---|
| Airport | - |
Arrival
| Time | 2026-04-22 00:45 |
|---|---|
| Airport | Glenwood Springs Municipal Airport (KGWS) |
| Time | Latitude | Longitude | Altitude | Speed | Heading |
|---|---|---|---|---|---|
| 2026-04-22 00:32 | 39.27665 | -106.89374 | 9532 ft | 100 kts | 315° |
| 2026-04-22 00:33 | 39.28195 | -106.89947 | 9753 ft | 98 kts | 307° |
| 2026-04-22 00:33 | 39.28689 | -106.90567 | 9982 ft | 99 kts | 308° |
| 2026-04-22 00:33 | 39.29179 | -106.91174 | 10201 ft | 99 kts | 308° |
| 2026-04-22 00:33 | 39.29693 | -106.91840 | 10291 ft | 108 kts | 308° |
| 2026-04-22 00:34 | 39.30223 | -106.92556 | 10378 ft | 111 kts | 309° |
| 2026-04-22 00:34 | 39.30751 | -106.93291 | 10469 ft | 112 kts | 310° |
| 2026-04-22 00:34 | 39.31295 | -106.94062 | 10453 ft | 118 kts | 309° |
| 2026-04-22 00:34 | 39.31803 | -106.94888 | 10444 ft | 118 kts | 302° |
| 2026-04-22 00:35 | 39.32281 | -106.95758 | 10454 ft | 118 kts | 303° |
| 2026-04-22 00:35 | 39.32744 | -106.96623 | 10456 ft | 119 kts | 303° |
| 2026-04-22 00:35 | 39.33221 | -106.97500 | 10458 ft | 119 kts | 303° |
| 2026-04-22 00:35 | 39.33693 | -106.98385 | 10462 ft | 119 kts | 303° |
| 2026-04-22 00:36 | 39.34169 | -106.99254 | 10464 ft | 119 kts | 303° |
| 2026-04-22 00:36 | 39.34648 | -107.00138 | 10461 ft | 119 kts | 303° |
| 2026-04-22 00:36 | 39.35127 | -107.01017 | 10472 ft | 119 kts | 303° |
| 2026-04-22 00:36 | 39.35542 | -107.01929 | 10471 ft | 119 kts | 298° |
| 2026-04-22 00:37 | 39.35941 | -107.02885 | 10480 ft | 120 kts | 297° |
| 2026-04-22 00:37 | 39.36331 | -107.03831 | 10482 ft | 120 kts | 297° |
| 2026-04-22 00:37 | 39.36726 | -107.04795 | 10475 ft | 121 kts | 297° |
| 2026-04-22 00:37 | 39.37133 | -107.05771 | 10468 ft | 125 kts | 297° |
| 2026-04-22 00:38 | 39.37532 | -107.06782 | 10457 ft | 126 kts | 296° |
| 2026-04-22 00:38 | 39.37932 | -107.07793 | 10469 ft | 126 kts | 296° |
| 2026-04-22 00:38 | 39.38332 | -107.08797 | 10472 ft | 127 kts | 296° |
| 2026-04-22 00:38 | 39.38732 | -107.09820 | 10475 ft | 127 kts | 296° |
| 2026-04-22 00:39 | 39.39135 | -107.10839 | 10482 ft | 127 kts | 296° |
| 2026-04-22 00:39 | 39.39526 | -107.11871 | 10497 ft | 126 kts | 295° |
| 2026-04-22 00:39 | 39.39913 | -107.12882 | 10492 ft | 126 kts | 295° |
| 2026-04-22 00:39 | 39.40308 | -107.13911 | 10477 ft | 126 kts | 295° |
| 2026-04-22 00:40 | 39.40692 | -107.14925 | 10467 ft | 126 kts | 294° |
| 2026-04-22 00:40 | 39.41074 | -107.15987 | 10317 ft | 134 kts | 295° |
| 2026-04-22 00:40 | 39.41456 | -107.17087 | 10161 ft | 135 kts | 295° |
| 2026-04-22 00:40 | 39.41840 | -107.18206 | 10006 ft | 136 kts | 295° |
| 2026-04-22 00:41 | 39.42219 | -107.19312 | 9848 ft | 136 kts | 295° |
| 2026-04-22 00:41 | 39.42605 | -107.20443 | 9689 ft | 136 kts | 295° |
| 2026-04-22 00:41 | 39.42992 | -107.21565 | 9545 ft | 135 kts | 295° |
| 2026-04-22 00:41 | 39.43356 | -107.22607 | 9606 ft | 127 kts | 294° |
| 2026-04-22 00:42 | 39.43733 | -107.23683 | 9444 ft | 132 kts | 295° |
| 2026-04-22 00:42 | 39.44110 | -107.24771 | 9320 ft | 132 kts | 295° |
| 2026-04-22 00:42 | 39.44613 | -107.25767 | 9204 ft | 133 kts | 305° |
| 2026-04-22 00:42 | 39.45168 | -107.26713 | 8961 ft | 129 kts | 318° |
| 2026-04-22 00:43 | 39.45779 | -107.27488 | 8642 ft | 120 kts | 319° |
| 2026-04-22 00:43 | 39.46442 | -107.28186 | 8075 ft | 131 kts | 326° |
| 2026-04-22 00:43 | 39.47176 | -107.28833 | 7539 ft | 124 kts | 332° |
| 2026-04-22 00:43 | 39.47921 | -107.29308 | 7011 ft | 123 kts | 333° |
| 2026-04-22 00:44 | 39.48628 | -107.29761 | 6674 ft | 103 kts | 332° |
| 2026-04-22 00:44 | 39.49249 | -107.30087 | 6405 ft | 88 kts | 329° |
| 2026-04-22 00:44 | 39.49766 | -107.30386 | 6224 ft | 74 kts | 328° |
| 2026-04-22 00:44 | 39.50205 | -107.30515 | 6248 ft | 58 kts | 334° |
| 2026-04-22 00:45 | 39.50529 | -107.30603 | 6273 ft | 36 kts | 338° |
| 2026-04-22 00:45 | 39.50730 | -107.30609 | 6368 ft | 29 kts | 267° |
| 2026-04-22 00:45 | 39.50699 | -107.30738 | 6408 ft | 30 kts | 113° |
| 2026-04-22 00:45 | 39.50485 | -107.30355 | 6356 ft | 59 kts | 157° |
| 2026-04-22 00:46 | 39.50294 | -107.30307 | 6290 ft | 22 kts | 269° |
| 2026-04-22 00:46 | 39.50274 | -107.30507 | 6156 ft | 25 kts | 316° |
| 2026-04-22 00:46 | 39.50368 | -107.30678 | 6062 ft | 18 kts | 325° |
| 2026-04-22 00:46 | 39.50406 | -107.30733 | 6026 ft | 9 kts | 320° |
| 2026-04-22 00:47 | 39.50481 | -107.30788 | 6012 ft | 8 kts | 320° |
| 2026-04-22 00:47 | 39.50520 | -107.30809 | 6012 ft | 6 kts | 310° |
| 2026-04-22 00:47 | 39.50534 | -107.30821 | 5997 ft | 6 kts | 313° |
| 2026-04-22 00:47 | 39.50532 | -107.30813 | 5983 ft | 0 kts | 320° |
| 2026-04-22 00:53 | 39.50531 | -107.30809 | 5988 ft | 3 kts | 321° |
| 2026-04-22 00:53 | 39.50609 | -107.30853 | 6105 ft | 39 kts | 324° |
| 2026-04-22 00:53 | 39.51007 | -107.31044 | 6391 ft | 81 kts | 318° |
| 2026-04-22 00:54 | 39.51565 | -107.31509 | 6722 ft | 106 kts | 322° |
| 2026-04-22 00:54 | 39.52270 | -107.31924 | 7054 ft | 117 kts | 336° |
| 2026-04-22 00:54 | 39.53081 | -107.32296 | 7196 ft | 127 kts | 335° |
| 2026-04-22 00:54 | 39.53910 | -107.32492 | 7555 ft | 122 kts | 8° |
| 2026-04-22 00:55 | 39.54708 | -107.32093 | 7851 ft | 125 kts | 22° |
| 2026-04-22 00:55 | 39.55344 | -107.31340 | 8158 ft | 126 kts | 50° |
| 2026-04-22 00:55 | 39.56161 | -107.29102 | 8115 ft | 145 kts | 72° |
| 2026-04-22 00:56 | 39.56413 | -107.27916 | 8373 ft | 133 kts | 78° |
| 2026-04-22 00:56 | 39.56371 | -107.26805 | 8799 ft | 117 kts | 100° |
| 2026-04-22 00:56 | 39.56184 | -107.25752 | 8978 ft | 129 kts | 105° |
| 2026-04-22 00:56 | 39.56372 | -107.24583 | 8685 ft | 134 kts | 62° |
| 2026-04-22 00:57 | 39.56825 | -107.23646 | 8731 ft | 119 kts | 52° |
| 2026-04-22 00:57 | 39.57248 | -107.22781 | 8835 ft | 109 kts | 49° |
| 2026-04-22 00:57 | 39.57664 | -107.21991 | 8981 ft | 107 kts | 50° |
| 2026-04-22 00:57 | 39.58110 | -107.21151 | 8897 ft | 121 kts | 52° |
| 2026-04-22 00:58 | 39.58635 | -107.20267 | 8802 ft | 122 kts | 55° |
| 2026-04-22 00:58 | 39.59117 | -107.19321 | 8649 ft | 128 kts | 57° |
| 2026-04-22 00:58 | 39.59619 | -107.18393 | 8610 ft | 121 kts | 55° |
| 2026-04-22 00:58 | 39.60067 | -107.17493 | 8592 ft | 119 kts | 54° |
| 2026-04-22 00:59 | 39.60516 | -107.16592 | 8597 ft | 118 kts | 54° |
| 2026-04-22 00:59 | 39.60966 | -107.15710 | 8576 ft | 118 kts | 55° |
| 2026-04-22 00:59 | 39.61413 | -107.14823 | 8571 ft | 118 kts | 55° |
| 2026-04-22 00:59 | 39.61868 | -107.13934 | 8563 ft | 118 kts | 56° |
| 2026-04-22 01:00 | 39.62338 | -107.13053 | 8564 ft | 119 kts | 54° |
| 2026-04-22 01:00 | 39.62797 | -107.12169 | 8567 ft | 118 kts | 55° |
| 2026-04-22 01:00 | 39.63267 | -107.11263 | 8554 ft | 120 kts | 55° |
| 2026-04-22 01:00 | 39.63701 | -107.10355 | 8548 ft | 118 kts | 61° |
| 2026-04-22 01:01 | 39.64037 | -107.09373 | 8555 ft | 118 kts | 66° |
| 2026-04-22 01:01 | 39.64302 | -107.08370 | 8542 ft | 119 kts | 80° |
| 2026-04-22 01:01 | 39.64497 | -107.07313 | 8506 ft | 121 kts | 78° |
| 2026-04-22 01:01 | 39.64689 | -107.06241 | 8483 ft | 122 kts | 79° |
| 2026-04-22 01:02 | 39.64856 | -107.05171 | 8456 ft | 122 kts | 88° |
| 2026-04-22 01:02 | 39.64914 | -107.04068 | 8431 ft | 122 kts | 89° |
| 2026-04-22 01:02 | 39.64981 | -107.02968 | 8408 ft | 122 kts | 88° |
| 2026-04-22 01:02 | 39.65044 | -107.01866 | 8390 ft | 122 kts | 88° |
| 2026-04-22 01:03 | 39.65107 | -107.00779 | 8351 ft | 122 kts | 88° |
| 2026-04-22 01:03 | 39.65188 | -106.99711 | 8291 ft | 116 kts | 86° |
| 2026-04-22 01:03 | 39.65292 | -106.98681 | 8235 ft | 111 kts | 85° |
| 2026-04-22 01:03 | 39.65387 | -106.97746 | 8170 ft | 100 kts | 87° |
| 2026-04-22 01:04 | 39.65477 | -106.96854 | 8163 ft | 97 kts | 86° |
| 2026-04-22 01:04 | 39.65559 | -106.95979 | 8160 ft | 97 kts | 85° |
| 2026-04-22 01:04 | 39.65652 | -106.95164 | 8157 ft | 83 kts | 82° |
| 2026-04-22 01:04 | 39.65723 | -106.94428 | 8165 ft | 82 kts | 86° |
| 2026-04-22 01:05 | 39.65798 | -106.93707 | 8137 ft | 80 kts | 89° |
| 2026-04-22 01:05 | 39.65718 | -106.93082 | 7986 ft | 69 kts | 137° |
| 2026-04-22 01:05 | 39.65422 | -106.92568 | 7674 ft | 71 kts | 163° |
| 2026-04-22 01:05 | 39.65118 | -106.92231 | 7459 ft | 41 kts | 163° |
| 2026-04-22 01:06 | 39.64988 | -106.91997 | 7028 ft | 41 kts | 141° |
| 2026-04-22 01:06 | 39.64745 | -106.91727 | 6913 ft | 51 kts | 133° |
| 2026-04-22 01:06 | 39.64564 | -106.91458 | 6729 ft | 31 kts | 84° |
| 2026-04-22 01:06 | 39.64544 | -106.91297 | 6628 ft | 11 kts | 54° |
| 2026-04-22 01:07 | 39.64566 | -106.91215 | 6609 ft | 6 kts | 19° |
| 2026-04-22 01:07 | 39.64588 | -106.91195 | 6598 ft | 6 kts | 349° |
| 2026-04-22 01:07 | 39.64591 | -106.91193 | 6597 ft | 0 kts | 347° |
| 2026-04-22 01:11 | 39.64599 | -106.91191 | 6660 ft | 10 kts | 353° |
| 2026-04-22 01:11 | 39.64718 | -106.91030 | 6773 ft | 60 kts | 49° |
| 2026-04-22 01:11 | 39.64977 | -106.90407 | 6994 ft | 94 kts | 67° |
| 2026-04-22 01:12 | 39.65247 | -106.89540 | 7230 ft | 110 kts | 68° |
| 2026-04-22 01:12 | 39.65506 | -106.88588 | 7598 ft | 118 kts | 69° |
| 2026-04-22 01:12 | 39.65807 | -106.87575 | 7858 ft | 124 kts | 68° |
| 2026-04-22 01:12 | 39.66103 | -106.86548 | 8181 ft | 121 kts | 69° |
| 2026-04-22 01:13 | 39.66392 | -106.85525 | 8491 ft | 121 kts | 70° |
| 2026-04-22 01:13 | 39.66683 | -106.84508 | 8796 ft | 120 kts | 70° |
| 2026-04-22 01:13 | 39.66976 | -106.83497 | 9101 ft | 119 kts | 69° |
| 2026-04-22 01:13 | 39.67260 | -106.82507 | 9411 ft | 118 kts | 69° |
| 2026-04-22 01:14 | 39.67558 | -106.81487 | 9527 ft | 132 kts | 71° |
| 2026-04-22 01:14 | 39.67924 | -106.80339 | 9495 ft | 139 kts | 70° |
| 2026-04-22 01:14 | 39.68302 | -106.79192 | 9506 ft | 138 kts | 70° |
| 2026-04-22 01:14 | 39.68655 | -106.78027 | 9523 ft | 139 kts | 76° |
| 2026-04-22 01:15 | 39.68961 | -106.76828 | 9522 ft | 139 kts | 75° |
| 2026-04-22 01:15 | 39.69271 | -106.75636 | 9531 ft | 139 kts | 75° |
| 2026-04-22 01:15 | 39.69578 | -106.74447 | 9534 ft | 139 kts | 76° |
| 2026-04-22 01:15 | 39.69855 | -106.73236 | 9551 ft | 138 kts | 84° |
| 2026-04-22 01:16 | 39.70002 | -106.72006 | 9544 ft | 139 kts | 89° |
| 2026-04-22 01:16 | 39.69884 | -106.70782 | 9552 ft | 136 kts | 115° |
| 2026-04-22 01:16 | 39.69589 | -106.69614 | 9544 ft | 137 kts | 113° |
| 2026-04-22 01:16 | 39.69233 | -106.68469 | 9548 ft | 137 kts | 120° |
| 2026-04-22 01:17 | 39.68844 | -106.67342 | 9547 ft | 137 kts | 120° |
| 2026-04-22 01:17 | 39.68383 | -106.66251 | 9535 ft | 137 kts | 124° |
| 2026-04-22 01:17 | 39.67900 | -106.65176 | 9532 ft | 137 kts | 125° |
| 2026-04-22 01:17 | 39.67421 | -106.64113 | 9539 ft | 137 kts | 125° |
| 2026-04-22 01:18 | 39.66942 | -106.63034 | 9554 ft | 137 kts | 125° |
| 2026-04-22 01:18 | 39.66528 | -106.61906 | 9526 ft | 138 kts | 115° |
| 2026-04-22 01:18 | 39.66169 | -106.60761 | 9562 ft | 138 kts | 116° |
| 2026-04-22 01:18 | 39.65818 | -106.59605 | 9570 ft | 138 kts | 116° |
| 2026-04-22 01:19 | 39.65469 | -106.58438 | 9569 ft | 137 kts | 116° |
| 2026-04-22 01:19 | 39.65124 | -106.57283 | 9573 ft | 138 kts | 116° |
| 2026-04-22 01:19 | 39.64776 | -106.56126 | 9579 ft | 138 kts | 116° |
| 2026-04-22 01:19 | 39.64421 | -106.54962 | 9591 ft | 138 kts | 116° |
| 2026-04-22 01:20 | 39.64063 | -106.53805 | 9589 ft | 138 kts | 116° |
| 2026-04-22 01:20 | 39.63708 | -106.52665 | 9598 ft | 137 kts | 116° |
| 2026-04-22 01:20 | 39.63343 | -106.51508 | 9600 ft | 138 kts | 116° |
| 2026-04-22 01:20 | 39.62983 | -106.50352 | 9599 ft | 137 kts | 116° |
| 2026-04-22 01:21 | 39.62625 | -106.49210 | 9601 ft | 138 kts | 116° |